Pilot Boat Portland — WY6766 — position and weather

sailwx.info

Track history (hours):
 
Tides and Currents Weather Stations Pressure Air Temp Water Temp Dewpoint Dewpoint Depression Visibility Wind Speed Wind Dir Waves Ship Positions

Pilot Boat Portland

Last reported at 2017-Aug-24 02:21 UTC. Time now 2017-Sep-26 18:35 UTC.
Position N 43°39' W 070°15'.
Warning: this ship's position is 33 days out of date.

MMSI: 338075893.

Date/timePositionNaut miles runAvg speedWind from/ knotsBaromVisibWave heightAir tempDewpointWater temp
2017-Aug-24 02:21N 43°39' W 070°15'2 5.0
2017-Aug-24 02:00N 43°39' W 070°13'4 7.6
2017-Aug-24 01:30N 43°36' W 070°10'5 9.2
2017-Aug-24 01:00N 43°32' W 070°05'10 1.0
2017-Aug-23 15:03N 43°39' W 070°15'0 0.1
2017-Aug-23 15:00N 43°39' W 070°15'0 0.0
2017-Aug-23 13:20N 43°39' W 070°15'2 5.4
2017-Aug-23 13:00N 43°39' W 070°13'3 5.3
2017-Aug-23 12:30N 43°37' W 070°10'4 0.2
2017-Aug-22 17:54N 43°39' W 070°15'0 0.0
2017-Aug-21 19:06N 43°39' W 070°15'0 5.0
2017-Aug-21 19:00N 43°39' W 070°15'0 0.8
2017-Aug-21 18:30N 43°40' W 070°14'0 0.7
2017-Aug-21 18:00N 43°39' W 070°15'1 2.4
2017-Aug-21 17:30N 43°39' W 070°13'3 5.1
2017-Aug-21 17:00N 43°37' W 070°11'4 7.9
2017-Aug-21 16:28N 43°33' W 070°08'4 9.0
2017-Aug-21 16:00N 43°37' W 070°11'  
Track history (hours):
 
Tides and Currents Weather Stations Pressure Air Temp Water Temp Dewpoint Dewpoint Depression Visibility Wind Speed Wind Dir Waves Ship Positions

Pilot Boat Portland

Last reported at 2017-Aug-24 02:21 UTC. Time now 2017-Sep-26 18:35 UTC.
Position N 43°39' W 070°15'.
Warning: this ship's position is 33 days out of date.

MMSI: 338075893.

Date/timePositionNaut miles runAvg speedWind from/ knotsBaromVisibWave heightAir tempDewpointWater temp
2017-Aug-24 02:21N 43°39' W 070°15'2 5.0
2017-Aug-24 02:00N 43°39' W 070°13'4 7.6
2017-Aug-24 01:30N 43°36' W 070°10'5 9.2
2017-Aug-24 01:00N 43°32' W 070°05'10 1.0
2017-Aug-23 15:03N 43°39' W 070°15'0 0.1
2017-Aug-23 15:00N 43°39' W 070°15'0 0.0
2017-Aug-23 13:20N 43°39' W 070°15'2 5.4
2017-Aug-23 13:00N 43°39' W 070°13'3 5.3
2017-Aug-23 12:30N 43°37' W 070°10'4 0.2
2017-Aug-22 17:54N 43°39' W 070°15'0 0.0
2017-Aug-21 19:06N 43°39' W 070°15'0 5.0
2017-Aug-21 19:00N 43°39' W 070°15'0 0.8
2017-Aug-21 18:30N 43°40' W 070°14'0 0.7
2017-Aug-21 18:00N 43°39' W 070°15'1 2.4
2017-Aug-21 17:30N 43°39' W 070°13'3 5.1
2017-Aug-21 17:00N 43°37' W 070°11'4 7.9
2017-Aug-21 16:28N 43°33' W 070°08'4 9.0
2017-Aug-21 16:00N 43°37' W 070°11'  

Dump ship's entire track history